createdAt,value
2017-09-24T00:01:36.688Z,68.70
2017-09-24T00:04:04.232Z,68.70
2017-09-24T00:06:31.671Z,68.50
2017-09-24T00:08:59.119Z,68.40
2017-09-24T00:11:26.767Z,69.20
2017-09-24T00:13:54.207Z,70.70
2017-09-24T00:16:21.721Z,71.30
2017-09-24T00:18:49.191Z,71.80
2017-09-24T00:21:16.628Z,71.60
2017-09-24T00:23:44.079Z,70.50
2017-09-24T00:26:11.512Z,70.30
2017-09-24T00:28:38.960Z,70.20
2017-09-24T00:31:06.396Z,69.90
2017-09-24T00:33:33.877Z,69.70
2017-09-24T00:36:02.071Z,69.40
2017-09-24T00:38:29.772Z,69.40
2017-09-24T00:40:57.218Z,69.30
2017-09-24T00:43:24.742Z,69.40
2017-09-24T00:45:52.239Z,69.30
2017-09-24T00:48:20.452Z,69.60
2017-09-24T00:50:47.907Z,69.60
2017-09-24T00:53:15.353Z,69.80
2017-09-24T00:55:42.791Z,70.10
2017-09-24T00:58:10.236Z,70.00
2017-09-24T01:00:37.679Z,70.10
2017-09-24T01:03:05.939Z,70.10
2017-09-24T01:05:33.387Z,70.10
2017-09-24T01:08:00.928Z,69.80
2017-09-24T01:10:29.985Z,69.50
2017-09-24T01:12:57.404Z,69.50
2017-09-24T01:15:24.898Z,69.00
2017-09-24T01:17:52.327Z,69.30
2017-09-24T01:20:19.768Z,69.90
2017-09-24T01:22:47.227Z,69.80
2017-09-24T01:25:14.687Z,69.90
2017-09-24T01:27:42.923Z,70.70
2017-09-24T01:30:10.572Z,70.10
2017-09-24T01:32:38.022Z,70.20
2017-09-24T01:35:05.492Z,70.10
2017-09-24T01:37:33.700Z,70.20
2017-09-24T01:40:01.160Z,70.20
2017-09-24T01:42:28.720Z,70.00
2017-09-24T01:44:56.156Z,69.80
2017-09-24T01:47:25.096Z,69.50
2017-09-24T01:49:52.536Z,69.50
2017-09-24T01:52:20.014Z,69.50
2017-09-24T01:54:47.455Z,69.60
2017-09-24T01:57:14.896Z,69.40
2017-09-24T01:59:42.444Z,69.20
2017-09-24T02:02:09.907Z,69.20
2017-09-24T02:04:38.184Z,69.40
2017-09-24T02:07:06.408Z,69.20
2017-09-24T02:09:33.952Z,69.20
2017-09-24T02:12:01.391Z,69.00
2017-09-24T02:14:28.832Z,68.70
2017-09-24T02:16:56.287Z,68.90
2017-09-24T02:19:23.719Z,70.90
2017-09-24T02:21:51.162Z,71.00
2017-09-24T02:24:18.602Z,71.80
2017-09-24T02:26:46.036Z,72.10
2017-09-24T02:29:13.491Z,72.40
2017-09-24T02:31:41.016Z,72.40
2017-09-24T02:34:08.484Z,72.10
2017-09-24T02:36:36.152Z,72.10
2017-09-24T02:39:03.592Z,72.60
2017-09-24T02:41:31.036Z,73.20
2017-09-24T02:43:58.595Z,73.50
2017-09-24T02:46:26.045Z,73.30
2017-09-24T02:48:53.485Z,72.90
2017-09-24T02:51:20.923Z,72.40
2017-09-24T02:53:48.413Z,72.10
2017-09-24T02:56:15.843Z,72.40
2017-09-24T02:58:44.068Z,72.00
2017-09-24T03:01:11.612Z,72.00
2017-09-24T03:03:39.060Z,72.00
2017-09-24T03:06:06.495Z,71.60
2017-09-24T03:08:34.759Z,71.20
2017-09-24T03:11:02.191Z,71.20
2017-09-24T03:13:29.632Z,71.20
2017-09-24T03:15:57.188Z,71.10
2017-09-24T03:18:24.639Z,71.10
2017-09-24T03:20:52.075Z,71.10
2017-09-24T03:23:19.515Z,71.30
2017-09-24T03:25:47.056Z,71.40
2017-09-24T03:28:14.504Z,71.50
2017-09-24T03:30:41.941Z,71.40
2017-09-24T03:33:09.488Z,71.30
2017-09-24T03:35:36.924Z,71.30
2017-09-24T03:38:04.373Z,71.20
2017-09-24T03:40:31.804Z,71.20
2017-09-24T03:42:59.280Z,71.70
2017-09-24T03:45:26.724Z,71.70
2017-09-24T03:47:54.159Z,71.60
2017-09-24T03:50:21.716Z,71.60
2017-09-24T03:52:49.144Z,71.60
2017-09-24T03:55:16.592Z,71.60
2017-09-24T03:57:44.024Z,71.40
2017-09-24T04:00:11.463Z,70.90
2017-09-24T04:02:38.896Z,70.90
2017-09-24T04:05:06.359Z,71.90
2017-09-24T04:07:33.803Z,72.30
2017-09-24T04:10:01.248Z,72.10
2017-09-24T04:12:28.689Z,73.00
2017-09-24T04:14:56.224Z,72.30
2017-09-24T04:17:23.664Z,72.20
2017-09-24T04:19:51.091Z,72.70
2017-09-24T04:22:18.535Z,72.80
2017-09-24T04:24:45.976Z,72.70
2017-09-24T04:27:13.449Z,73.00
2017-09-24T04:29:40.887Z,72.80
2017-09-24T04:32:08.439Z,73.10
2017-09-24T04:34:35.883Z,72.80
2017-09-24T04:37:03.320Z,72.70
2017-09-24T04:39:30.764Z,72.70
2017-09-24T04:41:58.199Z,72.50
2017-09-24T04:44:26.403Z,72.20
2017-09-24T04:46:53.840Z,72.20
2017-09-24T04:49:21.407Z,72.10
2017-09-24T04:51:48.952Z,72.00
2017-09-24T04:54:16.392Z,72.30
2017-09-24T04:56:43.835Z,72.40
2017-09-24T04:59:11.273Z,72.20
2017-09-24T05:01:38.826Z,72.30
2017-09-24T05:04:06.267Z,72.40
2017-09-24T05:06:33.708Z,72.50
2017-09-24T05:09:01.152Z,72.50
2017-09-24T05:11:28.600Z,72.00
2017-09-24T05:13:56.036Z,72.40
2017-09-24T05:16:23.480Z,72.90
2017-09-24T05:18:50.921Z,72.10
2017-09-24T05:21:18.381Z,72.30
2017-09-24T05:23:47.343Z,71.50
2017-09-24T05:26:14.788Z,71.50
2017-09-24T05:28:42.231Z,71.30
2017-09-24T05:31:09.665Z,71.10
2017-09-24T05:33:37.111Z,71.00
2017-09-24T05:36:04.547Z,70.50
2017-09-24T05:38:32.009Z,70.40
2017-09-24T05:40:59.459Z,70.10
2017-09-24T05:43:27.657Z,69.60
2017-09-24T05:45:55.100Z,69.60
2017-09-24T05:48:22.579Z,69.70
2017-09-24T05:50:50.025Z,69.80
2017-09-24T05:53:17.571Z,70.10
2017-09-24T05:55:45.112Z,70.40
2017-09-24T05:58:12.656Z,70.70
2017-09-24T06:00:40.178Z,70.90
2017-09-24T06:03:07.650Z,70.80
2017-09-24T06:05:35.088Z,70.60
2017-09-24T06:08:02.541Z,70.90
2017-09-24T06:10:29.976Z,71.30
2017-09-24T06:12:57.515Z,71.50
2017-09-24T06:15:24.960Z,71.30
2017-09-24T06:17:53.941Z,70.60
2017-09-24T06:20:21.399Z,70.50
2017-09-24T06:22:49.599Z,70.20
2017-09-24T06:25:17.084Z,69.90
2017-09-24T06:27:44.664Z,70.00
2017-09-24T06:30:12.888Z,69.90
2017-09-24T06:32:40.372Z,70.00
2017-09-24T06:35:07.807Z,69.50
2017-09-24T06:37:36.015Z,69.00
2017-09-24T06:40:03.456Z,69.00
2017-09-24T06:42:30.891Z,68.70
2017-09-24T06:44:58.348Z,68.10
2017-09-24T06:47:25.805Z,67.50
2017-09-24T06:49:53.255Z,67.00
2017-09-24T06:52:20.692Z,66.00
2017-09-24T06:54:48.126Z,64.90
2017-09-24T06:57:15.676Z,64.20
2017-09-24T06:59:43.120Z,63.80
2017-09-24T07:02:10.556Z,62.50
2017-09-24T07:04:37.999Z,61.70
2017-09-24T07:07:05.435Z,60.60
2017-09-24T07:09:32.896Z,59.80
2017-09-24T07:12:00.432Z,60.00
2017-09-24T07:14:27.867Z,58.80
2017-09-24T07:16:55.308Z,57.70
2017-09-24T07:19:22.763Z,57.30
2017-09-24T07:21:50.225Z,56.40
2017-09-24T07:24:18.428Z,55.40
2017-09-24T07:26:45.859Z,55.30
2017-09-24T07:29:13.311Z,55.50
2017-09-24T07:31:40.739Z,55.10
2017-09-24T07:34:08.239Z,54.70
2017-09-24T07:36:35.679Z,53.60
2017-09-24T07:39:03.112Z,53.70
2017-09-24T07:41:30.563Z,53.20
2017-09-24T07:43:58.004Z,52.70
2017-09-24T07:46:26.268Z,52.10
2017-09-24T07:48:53.812Z,52.20
2017-09-24T07:51:22.124Z,51.80
2017-09-24T07:53:49.574Z,51.70
2017-09-24T07:56:17.061Z,52.30
2017-09-24T07:58:44.524Z,50.90
2017-09-24T08:01:11.956Z,50.20
2017-09-24T08:03:39.396Z,50.20
2017-09-24T08:06:06.843Z,49.90
2017-09-24T08:08:34.355Z,50.20
2017-09-24T08:11:01.821Z,49.90
2017-09-24T08:13:29.650Z,49.60
2017-09-24T08:15:57.197Z,48.50
2017-09-24T08:18:24.742Z,48.60
2017-09-24T08:20:52.160Z,48.00
2017-09-24T08:23:19.599Z,46.80
2017-09-24T08:25:47.037Z,48.10
2017-09-24T08:28:14.572Z,47.40
2017-09-24T08:30:42.779Z,48.70
2017-09-24T08:33:10.214Z,48.70
2017-09-24T08:35:37.651Z,49.20
2017-09-24T08:38:05.088Z,49.40
2017-09-24T08:40:32.559Z,49.10
2017-09-24T08:43:00.004Z,49.00
2017-09-24T08:45:27.439Z,48.70
2017-09-24T08:47:54.895Z,48.70
2017-09-24T08:50:22.328Z,47.60
2017-09-24T08:52:49.780Z,46.40
2017-09-24T08:55:17.211Z,46.10
2017-09-24T08:57:44.669Z,47.00
2017-09-24T09:00:12.123Z,46.60
2017-09-24T09:02:40.384Z,47.30
2017-09-24T09:05:07.820Z,47.30
2017-09-24T09:07:35.353Z,47.40
2017-09-24T09:10:02.800Z,47.10
2017-09-24T09:12:31.169Z,47.50
2017-09-24T09:15:03.303Z,48.10
2017-09-24T09:17:30.912Z,48.00
2017-09-24T09:19:58.396Z,47.80
2017-09-24T09:22:25.838Z,46.90
2017-09-24T09:24:53.295Z,46.50
2017-09-24T09:27:20.830Z,46.20
2017-09-24T09:29:48.270Z,46.50
2017-09-24T09:32:15.941Z,46.10
2017-09-24T09:34:55.349Z,45.00
2017-09-24T09:37:22.776Z,45.30
2017-09-24T09:39:50.228Z,44.40
2017-09-24T09:42:17.703Z,43.80
2017-09-24T09:44:50.759Z,43.60
2017-09-24T09:47:26.033Z,43.50
2017-09-24T09:49:53.623Z,42.50
2017-09-24T09:52:21.055Z,42.60
2017-09-24T09:54:48.599Z,41.80
2017-09-24T09:57:16.035Z,41.90
2017-09-24T09:59:43.464Z,40.80
2017-09-24T10:02:10.899Z,40.50
2017-09-24T10:04:38.491Z,40.30
2017-09-24T10:07:17.791Z,40.40
2017-09-24T10:09:57.216Z,40.80
2017-09-24T10:12:24.673Z,40.10
2017-09-24T10:14:52.103Z,40.80
2017-09-24T10:17:19.540Z,40.40
2017-09-24T10:19:46.976Z,39.30
2017-09-24T10:22:14.407Z,39.90
2017-09-24T10:24:41.868Z,39.50
2017-09-24T10:27:09.334Z,39.50
2017-09-24T10:29:36.787Z,38.30
2017-09-24T10:32:05.760Z,39.10
2017-09-24T10:34:34.009Z,39.70
2017-09-24T10:37:01.432Z,39.70
2017-09-24T10:39:28.875Z,39.50
2017-09-24T10:41:56.351Z,39.00
2017-09-24T10:44:24.676Z,39.90
2017-09-24T10:46:52.099Z,39.70
2017-09-24T10:49:19.585Z,40.40
2017-09-24T10:51:47.043Z,39.70
2017-09-24T10:54:15.244Z,40.10
2017-09-24T10:56:42.719Z,40.00
2017-09-24T10:59:10.288Z,41.70
2017-09-24T11:01:38.491Z,42.20
2017-09-24T11:04:05.935Z,42.90
2017-09-24T11:06:33.375Z,41.30
2017-09-24T11:09:00.852Z,41.30
2017-09-24T11:11:28.308Z,41.10
2017-09-24T11:13:55.735Z,41.30
2017-09-24T11:16:23.167Z,41.40
2017-09-24T11:18:50.607Z,41.20
2017-09-24T11:21:18.066Z,41.60
2017-09-24T11:23:45.515Z,40.70
2017-09-24T11:26:12.948Z,40.30
2017-09-24T11:28:40.472Z,40.90
2017-09-24T11:31:07.895Z,42.60
2017-09-24T11:33:35.332Z,43.50
2017-09-24T11:36:02.787Z,44.10
2017-09-24T11:38:30.220Z,44.80
2017-09-24T11:40:57.688Z,46.00
2017-09-24T11:43:25.124Z,46.70
2017-09-24T11:45:52.566Z,47.50
2017-09-24T11:48:20.272Z,47.60
2017-09-24T11:50:47.783Z,47.70
2017-09-24T11:53:15.226Z,46.90
2017-09-24T11:55:42.771Z,46.60
2017-09-24T11:58:10.212Z,46.40
2017-09-24T12:00:37.679Z,46.10
2017-09-24T12:03:05.915Z,46.00
2017-09-24T12:05:33.352Z,45.90
2017-09-24T12:08:00.862Z,45.60
2017-09-24T12:10:28.311Z,45.70
2017-09-24T12:12:55.740Z,45.20
2017-09-24T12:15:23.234Z,45.80
2017-09-24T12:17:51.517Z,45.80
2017-09-24T12:20:19.819Z,44.80
2017-09-24T12:22:47.327Z,44.80
2017-09-24T12:25:15.531Z,44.40
2017-09-24T12:27:42.966Z,44.30
2017-09-24T12:30:10.424Z,44.30
2017-09-24T12:32:37.843Z,44.70
2017-09-24T12:35:05.362Z,44.60
2017-09-24T12:37:33.570Z,44.00
2017-09-24T12:40:01.004Z,44.00
2017-09-24T12:42:28.448Z,43.30
2017-09-24T12:44:55.887Z,43.50
2017-09-24T12:47:23.361Z,43.70
2017-09-24T12:49:50.795Z,42.10
2017-09-24T12:52:18.248Z,42.60
2017-09-24T12:54:45.696Z,41.60
2017-09-24T12:57:13.923Z,41.70
2017-09-24T12:59:41.379Z,41.70
2017-09-24T13:02:08.816Z,40.70
2017-09-24T13:04:36.249Z,40.80
2017-09-24T13:07:03.689Z,39.80
2017-09-24T13:09:31.140Z,38.30
2017-09-24T13:11:58.582Z,38.10
2017-09-24T13:14:26.055Z,38.60
2017-09-24T13:16:53.591Z,37.70
2017-09-24T13:19:21.040Z,37.80
2017-09-24T13:21:49.280Z,37.90
2017-09-24T13:24:16.740Z,37.90
2017-09-24T13:26:44.191Z,37.20
2017-09-24T13:29:11.616Z,37.50
2017-09-24T13:31:39.048Z,38.70
2017-09-24T13:34:06.487Z,39.10
2017-09-24T13:36:34.036Z,39.30
2017-09-24T13:39:01.496Z,39.70
2017-09-24T13:41:28.928Z,40.00
2017-09-24T13:43:56.367Z,41.00
2017-09-24T13:46:23.795Z,41.20
2017-09-24T13:48:51.262Z,41.30
2017-09-24T13:51:18.692Z,41.90
2017-09-24T13:53:46.140Z,42.40
2017-09-24T13:56:13.601Z,42.40
2017-09-24T13:58:41.151Z,43.60
2017-09-24T14:01:09.372Z,44.90
2017-09-24T14:03:36.849Z,45.00
2017-09-24T14:06:04.279Z,45.00
2017-09-24T14:08:31.720Z,44.30
2017-09-24T14:10:59.158Z,43.90
2017-09-24T14:13:26.623Z,43.50
2017-09-24T14:15:54.857Z,43.10
2017-09-24T14:18:22.281Z,43.00
2017-09-24T14:20:49.720Z,42.80
2017-09-24T14:23:17.199Z,42.60
2017-09-24T14:25:44.643Z,42.80
2017-09-24T14:28:12.084Z,43.60
2017-09-24T14:30:39.516Z,44.30
2017-09-24T14:33:06.952Z,44.30
2017-09-24T14:35:34.384Z,44.20
2017-09-24T14:38:01.825Z,44.40
2017-09-24T14:40:29.277Z,44.50
2017-09-24T14:42:56.747Z,45.00
2017-09-24T14:45:24.192Z,45.40
2017-09-24T14:47:51.640Z,44.90
2017-09-24T14:50:19.097Z,44.70
2017-09-24T14:52:47.437Z,44.90
2017-09-24T14:55:14.872Z,44.80
2017-09-24T14:57:42.332Z,45.00
2017-09-24T15:00:09.767Z,45.50
2017-09-24T15:02:37.315Z,45.30
2017-09-24T15:05:04.753Z,45.50
2017-09-24T15:07:32.191Z,45.40
2017-09-24T15:09:59.631Z,45.40
2017-09-24T15:12:27.067Z,45.60
2017-09-24T15:14:54.558Z,45.40
2017-09-24T15:17:22.761Z,45.40
2017-09-24T15:19:50.248Z,45.40
2017-09-24T15:22:18.527Z,45.90
2017-09-24T15:24:46.794Z,45.50
2017-09-24T15:27:15.012Z,45.00
2017-09-24T15:29:42.471Z,45.00
2017-09-24T15:32:10.712Z,45.40
2017-09-24T15:34:38.213Z,45.20
2017-09-24T15:37:05.701Z,44.90
2017-09-24T15:39:33.132Z,45.80
2017-09-24T15:42:00.744Z,45.40
2017-09-24T15:44:28.314Z,45.30
2017-09-24T15:46:55.737Z,45.90
2017-09-24T15:49:23.187Z,46.40
2017-09-24T15:51:50.624Z,47.40
2017-09-24T15:54:18.064Z,47.90
2017-09-24T15:56:45.543Z,48.10
2017-09-24T15:59:12.980Z,48.00
2017-09-24T16:01:40.516Z,47.90
2017-09-24T16:04:07.948Z,47.90
2017-09-24T16:06:35.396Z,48.20
2017-09-24T16:09:02.854Z,48.40
2017-09-24T16:11:30.320Z,48.30
2017-09-24T16:13:57.761Z,48.40
2017-09-24T16:16:25.200Z,48.80
2017-09-24T16:18:52.856Z,49.10
2017-09-24T16:21:20.279Z,49.30
2017-09-24T16:23:47.720Z,49.40
2017-09-24T16:26:15.163Z,49.50
2017-09-24T16:28:42.600Z,49.90
2017-09-24T16:31:10.052Z,50.00
2017-09-24T16:33:37.778Z,50.30
2017-09-24T16:36:05.236Z,50.40
2017-09-24T16:38:33.208Z,50.60
2017-09-24T16:41:00.647Z,50.70
2017-09-24T16:43:28.091Z,50.80
2017-09-24T16:45:55.706Z,51.20
2017-09-24T16:48:23.190Z,51.80
2017-09-24T16:50:50.667Z,52.40
2017-09-24T16:53:18.109Z,52.70
2017-09-24T16:55:46.519Z,52.70
2017-09-24T16:58:14.748Z,52.90
2017-09-24T17:00:42.191Z,52.80
2017-09-24T17:03:09.657Z,53.30
2017-09-24T17:05:37.087Z,53.30
2017-09-24T17:08:04.536Z,53.40
2017-09-24T17:10:32.260Z,53.10
2017-09-24T17:12:59.720Z,53.20
2017-09-24T17:15:27.157Z,53.30
2017-09-24T17:17:54.615Z,53.00
2017-09-24T17:20:22.300Z,53.60
2017-09-24T17:22:49.847Z,53.40
2017-09-24T17:25:18.060Z,53.70
2017-09-24T17:27:45.506Z,53.70
2017-09-24T17:30:12.955Z,53.60
2017-09-24T17:32:40.397Z,53.20
2017-09-24T17:35:07.861Z,53.20
2017-09-24T17:37:35.713Z,53.00
2017-09-24T17:40:06.360Z,52.90
2017-09-24T17:42:34.054Z,52.90
2017-09-24T17:45:01.553Z,53.20
2017-09-24T17:47:29.768Z,52.40
2017-09-24T17:49:57.219Z,52.40
2017-09-24T17:52:24.665Z,52.50
2017-09-24T17:54:53.073Z,53.00
2017-09-24T17:57:20.668Z,53.10
2017-09-24T17:59:48.120Z,53.10
2017-09-24T18:02:15.556Z,53.50
2017-09-24T18:04:44.260Z,53.20
2017-09-24T18:07:12.507Z,53.60
2017-09-24T18:09:39.948Z,53.50
2017-09-24T18:12:07.389Z,54.00
2017-09-24T18:14:34.863Z,53.60
2017-09-24T18:17:02.311Z,53.90
2017-09-24T18:19:29.800Z,53.80
2017-09-24T18:21:57.240Z,53.60
2017-09-24T18:24:24.692Z,53.40
2017-09-24T18:26:52.132Z,53.80
2017-09-24T18:29:19.563Z,53.00
2017-09-24T18:31:47.020Z,53.00
2017-09-24T18:34:14.464Z,53.80
2017-09-24T18:36:42.004Z,53.80
2017-09-24T18:39:09.455Z,53.70
2017-09-24T18:41:36.891Z,53.30
2017-09-24T18:44:04.444Z,53.50
2017-09-24T18:46:31.880Z,53.80
2017-09-24T18:48:59.432Z,53.60
2017-09-24T18:51:26.977Z,52.90
2017-09-24T18:53:54.512Z,53.30
2017-09-24T18:56:21.956Z,54.40
2017-09-24T18:58:49.396Z,54.50
2017-09-24T19:01:16.831Z,54.90
2017-09-24T19:03:44.282Z,55.40
2017-09-24T19:06:11.731Z,55.30
2017-09-24T19:08:39.167Z,55.40
2017-09-24T19:11:06.647Z,55.30
2017-09-24T19:13:34.099Z,55.30
2017-09-24T19:16:01.636Z,55.10
2017-09-24T19:18:29.092Z,55.40
2017-09-24T19:20:56.555Z,55.40
2017-09-24T19:23:23.996Z,55.40
2017-09-24T19:25:51.467Z,55.30
2017-09-24T19:28:18.917Z,55.20
2017-09-24T19:30:46.413Z,55.00
2017-09-24T19:33:13.903Z,53.70
2017-09-24T19:35:41.316Z,53.70
2017-09-24T19:38:08.757Z,54.20
2017-09-24T19:40:36.205Z,54.40
2017-09-24T19:43:03.661Z,54.60
2017-09-24T19:45:31.117Z,54.40
2017-09-24T19:47:58.527Z,54.80
2017-09-24T19:50:26.158Z,54.30
2017-09-24T19:52:53.596Z,54.90
2017-09-24T19:55:21.036Z,54.10
2017-09-24T19:57:48.470Z,54.30
2017-09-24T20:00:15.913Z,53.80
2017-09-24T20:02:43.511Z,54.00
2017-09-24T20:05:11.061Z,54.20
2017-09-24T20:07:38.500Z,54.40
2017-09-24T20:10:05.971Z,53.90
2017-09-24T20:12:34.212Z,53.90
2017-09-24T20:15:01.651Z,53.90
2017-09-24T20:17:29.084Z,54.00
2017-09-24T20:19:56.636Z,53.50
2017-09-24T20:22:24.895Z,54.30
2017-09-24T20:24:52.349Z,54.30
2017-09-24T20:27:19.765Z,53.80
2017-09-24T20:29:47.306Z,54.00
2017-09-24T20:32:14.768Z,54.20
2017-09-24T20:34:42.320Z,54.50
2017-09-24T20:37:09.767Z,53.90
2017-09-24T20:39:37.236Z,54.40
2017-09-24T20:42:05.563Z,54.90
2017-09-24T20:44:32.993Z,54.90
2017-09-24T20:47:00.427Z,54.70
2017-09-24T20:49:28.008Z,54.70
2017-09-24T20:51:56.236Z,55.40
2017-09-24T20:54:23.696Z,55.40
2017-09-24T20:56:51.172Z,55.30
2017-09-24T20:59:19.368Z,55.60
2017-09-24T21:01:46.824Z,55.60
2017-09-24T21:04:14.319Z,56.20
2017-09-24T21:06:41.832Z,56.20
2017-09-24T21:09:09.307Z,56.60
2017-09-24T21:11:37.544Z,56.80
2017-09-24T21:14:05.080Z,56.70
2017-09-24T21:16:32.623Z,57.40
2017-09-24T21:19:00.156Z,56.70
2017-09-24T21:21:27.604Z,56.80
2017-09-24T21:23:55.029Z,56.80
2017-09-24T21:26:22.464Z,56.80
2017-09-24T21:28:49.939Z,56.60
2017-09-24T21:31:17.347Z,56.80
2017-09-24T21:33:44.776Z,56.60
2017-09-24T21:36:12.237Z,56.80
2017-09-24T21:38:39.681Z,56.70
2017-09-24T21:41:07.103Z,56.80
2017-09-24T21:43:34.543Z,56.80
2017-09-24T21:46:01.984Z,57.50
2017-09-24T21:48:29.420Z,57.10
2017-09-24T21:50:56.855Z,57.30
2017-09-24T21:53:25.067Z,57.20
2017-09-24T21:55:52.523Z,57.20
2017-09-24T21:58:20.781Z,57.50
2017-09-24T22:00:48.208Z,57.50
2017-09-24T22:03:15.676Z,57.70
2017-09-24T22:05:43.216Z,57.80
2017-09-24T22:08:10.683Z,58.00
2017-09-24T22:10:38.918Z,58.60
2017-09-24T22:13:08.108Z,58.30
2017-09-24T22:15:35.548Z,58.30
2017-09-24T22:18:02.980Z,58.40
2017-09-24T22:20:30.422Z,58.20
2017-09-24T22:22:57.872Z,58.40
2017-09-24T22:25:35.229Z,58.30
2017-09-24T22:28:02.676Z,58.30
2017-09-24T22:30:30.132Z,58.60
2017-09-24T22:32:57.571Z,58.70
2017-09-24T22:35:25.023Z,59.00
2017-09-24T22:37:52.548Z,59.50
2017-09-24T22:40:20.052Z,60.20
2017-09-24T22:42:47.488Z,60.80
2017-09-24T22:45:14.930Z,61.10
2017-09-24T22:47:43.127Z,60.30
2017-09-24T22:50:10.600Z,60.40
2017-09-24T22:52:38.140Z,60.10
2017-09-24T22:55:06.398Z,60.20
2017-09-24T22:57:33.832Z,60.10
2017-09-24T23:00:01.410Z,60.10
2017-09-24T23:02:29.605Z,60.10
2017-09-24T23:04:57.046Z,60.00
2017-09-24T23:07:24.479Z,59.90
2017-09-24T23:09:51.979Z,60.10
2017-09-24T23:12:19.424Z,59.60
2017-09-24T23:14:47.016Z,60.10
2017-09-24T23:17:14.495Z,60.00
2017-09-24T23:19:41.952Z,60.60
2017-09-24T23:22:09.396Z,60.60
2017-09-24T23:24:36.839Z,60.30
2017-09-24T23:27:05.039Z,60.20
2017-09-24T23:29:32.540Z,60.20
2017-09-24T23:31:59.982Z,60.00
2017-09-24T23:34:27.523Z,60.20
2017-09-24T23:36:54.980Z,60.40
2017-09-24T23:39:22.441Z,61.10
2017-09-24T23:41:50.647Z,61.10
2017-09-24T23:44:18.092Z,61.10
2017-09-24T23:46:45.538Z,61.10
2017-09-24T23:49:12.999Z,61.10
2017-09-24T23:51:40.555Z,61.10
2017-09-24T23:54:07.992Z,61.40
2017-09-24T23:56:35.532Z,61.80
2017-09-24T23:59:02.969Z,62.00
